Time;durP1;ratioP1;P1;durP2;ratioP2;P2;SDS_P1;SDS_P2;PMS_P1;PMS_P2;Temp;Humidity;BMP_temperature;BMP_pressure;BME280_temperature;BME280_humidity;BME280_pressure;Samples;Min_cycle;Max_cycle;Signal;HPM_P1;HPM_P2
2020/12/19 00:02:21;;;;;;;16.55;10.70;;;;;;;;;;5013304;28;20069;-72
2020/12/19 00:04:47;;;;;;;17.15;10.77;;;;;;;;;;5013095;28;20448;-73
2020/12/19 00:07:13;;;;;;;20.27;10.80;;;;;;;;;;5011620;28;20502;-73
2020/12/19 00:09:39;;;;;;;18.08;10.88;;;;;;;;;;5012008;28;20112;-73
2020/12/19 00:12:06;;;;;;;19.92;11.15;;;;;;;;;;5014066;28;20491;-73
2020/12/19 00:14:32;;;;;;;19.60;12.48;;;;;;;;;;5008359;28;20055;-73
2020/12/19 00:16:58;;;;;;;17.77;10.60;;;;;;;;;;5011377;28;20033;-72
2020/12/19 00:19:24;;;;;;;20.48;11.18;;;;;;;;;;5023595;28;20029;-73
2020/12/19 00:21:50;;;;;;;20.75;11.45;;;;;;;;;;5012128;28;20039;-73
2020/12/19 00:24:16;;;;;;;19.30;10.35;;;;;;;;;;5008960;28;20061;-73
2020/12/19 00:26:42;;;;;;;18.02;11.13;;;;;;;;;;5023468;28;20498;-73
2020/12/19 00:29:09;;;;;;;20.80;12.88;;;;;;;;;;5016578;28;20021;-73
2020/12/19 00:31:35;;;;;;;18.70;11.55;;;;;;;;;;5016717;28;20029;-73
2020/12/19 00:34:01;;;;;;;19.40;12.25;;;;;;;;;;5009873;28;20072;-73
2020/12/19 00:36:27;;;;;;;19.13;11.07;;;;;;;;;;5014633;28;20430;-73
2020/12/19 00:38:53;;;;;;;17.42;11.23;;;;;;;;;;5014641;28;20025;-72
2020/12/19 00:41:20;;;;;;;17.80;10.73;;;;;;;;;;5023260;28;20109;-73
2020/12/19 00:43:47;;;;;;;19.63;12.05;;;;;;;;;;5008280;28;20029;-73
2020/12/19 00:46:13;;;;;;;19.05;11.88;;;;;;;;;;5022875;28;20029;-73
2020/12/19 00:48:40;;;;;;;18.08;11.05;;;;;;;;;;5013769;28;20030;-73
2020/12/19 00:51:11;;;;;;;20.70;11.70;;;;;;;;;;5022578;28;20419;-73
2020/12/19 00:53:37;;;;;;;19.90;11.57;;;;;;;;;;5021018;28;20450;-72
2020/12/19 00:56:03;;;;;;;22.30;11.80;;;;;;;;;;5008405;28;20034;-72
2020/12/19 00:58:29;;;;;;;19.48;10.80;;;;;;;;;;5020138;28;20399;-72
2020/12/19 01:00:55;;;;;;;19.50;11.73;;;;;;;;;;5027652;28;20513;-72
2020/12/19 01:03:20;;;;;;;20.15;11.68;;;;;;;;;;5015958;28;20502;-73
2020/12/19 01:05:46;;;;;;;18.25;11.90;;;;;;;;;;5024350;28;20029;-72
2020/12/19 01:08:12;;;;;;;19.42;12.77;;;;;;;;;;5027534;28;20036;-72
2020/12/19 01:10:38;;;;;;;22.88;12.95;;;;;;;;;;5022935;28;20029;-72
2020/12/19 01:13:04;;;;;;;19.67;12.07;;;;;;;;;;5026727;28;20390;-73
2020/12/19 01:15:30;;;;;;;18.45;12.63;;;;;;;;;;5013792;28;20099;-73
2020/12/19 01:17:56;;;;;;;20.23;12.15;;;;;;;;;;5021490;28;20490;-73
2020/12/19 01:20:22;;;;;;;24.73;12.77;;;;;;;;;;5020249;28;20026;-73
2020/12/19 01:22:48;;;;;;;26.17;13.82;;;;;;;;;;5027458;28;20368;-72
2020/12/19 01:25:14;;;;;;;21.60;12.52;;;;;;;;;;5026279;28;20490;-73
2020/12/19 01:27:40;;;;;;;19.70;11.70;;;;;;;;;;5029807;28;20021;-72
2020/12/19 01:30:05;;;;;;;23.08;14.07;;;;;;;;;;5031904;28;20017;-73
2020/12/19 01:32:31;;;;;;;22.52;12.90;;;;;;;;;;5031514;28;20145;-73
2020/12/19 01:34:57;;;;;;;23.42;13.23;;;;;;;;;;5031749;28;20021;-72
2020/12/19 01:37:23;;;;;;;22.88;12.63;;;;;;;;;;5031242;28;20037;-72
2020/12/19 01:39:49;;;;;;;25.23;13.05;;;;;;;;;;5031439;28;20156;-72
2020/12/19 01:42:15;;;;;;;22.23;12.93;;;;;;;;;;5022436;28;20017;-72
2020/12/19 01:44:41;;;;;;;24.98;14.07;;;;;;;;;;5021126;28;20109;-72
2020/12/19 01:47:09;;;;;;;23.08;13.23;;;;;;;;;;5030977;28;20112;-73
2020/12/19 01:49:36;;;;;;;23.60;13.35;;;;;;;;;;5032051;28;20048;-72
2020/12/19 01:52:02;;;;;;;24.30;13.35;;;;;;;;;;5031961;28;20061;-73
2020/12/19 01:54:29;;;;;;;25.45;13.98;;;;;;;;;;5019450;28;20109;-73
2020/12/19 01:56:56;;;;;;;25.45;15.07;;;;;;;;;;5029363;28;20387;-73
2020/12/19 01:59:23;;;;;;;25.48;13.27;;;;;;;;;;5029975;28;20041;-73
2020/12/19 02:01:53;;;;;;;29.48;15.02;;;;;;;;;;5030675;28;20038;-73
2020/12/19 02:04:20;;;;;;;21.85;12.68;;;;;;;;;;5021177;28;20064;-73
2020/12/19 02:06:47;;;;;;;22.60;12.75;;;;;;;;;;5039162;28;20042;-73
2020/12/19 02:09:13;;;;;;;24.08;12.57;;;;;;;;;;5031051;28;20036;-73
2020/12/19 02:11:40;;;;;;;25.35;13.50;;;;;;;;;;5031534;28;20030;-73
2020/12/19 02:14:09;;;;;;;21.48;12.40;;;;;;;;;;5030945;28;20018;-72
2020/12/19 02:16:36;;;;;;;24.63;12.93;;;;;;;;;;5031306;28;20034;-72
2020/12/19 02:19:12;;;;;;;20.02;11.90;;;;;;;;;;5030331;28;20045;-72
2020/12/19 02:21:38;;;;;;;23.10;12.93;;;;;;;;;;5031322;28;20096;-73
2020/12/19 02:24:04;;;;;;;23.33;13.20;;;;;;;;;;5031102;28;20029;-73
2020/12/19 02:26:30;;;;;;;22.67;12.75;;;;;;;;;;5023891;28;20545;-73
2020/12/19 02:28:55;;;;;;;21.92;12.60;;;;;;;;;;5027740;28;20092;-72
2020/12/19 02:31:21;;;;;;;18.40;12.07;;;;;;;;;;5013123;28;20060;-72
2020/12/19 02:33:47;;;;;;;22.60;12.02;;;;;;;;;;5029429;28;20021;-73
2020/12/19 02:36:13;;;;;;;21.95;13.02;;;;;;;;;;5018401;28;20186;-73
2020/12/19 02:38:39;;;;;;;21.60;11.85;;;;;;;;;;5030553;28;20112;-73
2020/12/19 02:41:05;;;;;;;22.20;13.07;;;;;;;;;;5030993;28;20112;-72
2020/12/19 02:43:31;;;;;;;22.40;12.35;;;;;;;;;;5019385;28;20030;-72
2020/12/19 02:45:58;;;;;;;25.25;13.13;;;;;;;;;;5027563;28;20048;-72
2020/12/19 02:48:24;;;;;;;20.20;11.48;;;;;;;;;;5021559;28;20075;-72
2020/12/19 02:50:50;;;;;;;18.65;11.45;;;;;;;;;;5011649;28;20034;-72
2020/12/19 02:53:16;;;;;;;22.02;12.65;;;;;;;;;;5030832;28;20053;-72
2020/12/19 02:55:42;;;;;;;21.92;12.15;;;;;;;;;;5019433;28;20060;-73
2020/12/19 02:58:08;;;;;;;23.65;11.80;;;;;;;;;;5028035;28;20435;-73
2020/12/19 03:00:34;;;;;;;22.02;13.43;;;;;;;;;;5017599;28;20188;-73
2020/12/19 03:03:00;;;;;;;21.95;11.75;;;;;;;;;;5026797;28;20108;-73
2020/12/19 03:05:26;;;;;;;23.50;13.23;;;;;;;;;;5030217;28;20029;-73
2020/12/19 03:07:51;;;;;;;22.08;12.50;;;;;;;;;;5027973;28;20037;-72
2020/12/19 03:10:17;;;;;;;24.52;12.75;;;;;;;;;;5029767;28;20037;-72
2020/12/19 03:12:43;;;;;;;20.08;13.40;;;;;;;;;;5022347;28;20056;-72
2020/12/19 03:15:09;;;;;;;23.02;12.35;;;;;;;;;;5023713;28;20028;-72
2020/12/19 03:17:35;;;;;;;23.15;12.65;;;;;;;;;;5028227;28;20023;-73
2020/12/19 03:20:01;;;;;;;24.73;13.13;;;;;;;;;;5028569;28;20109;-72
2020/12/19 03:22:27;;;;;;;20.35;12.20;;;;;;;;;;5026448;28;20105;-72
2020/12/19 03:24:53;;;;;;;23.70;13.70;;;;;;;;;;5019482;28;20033;-72
2020/12/19 03:27:19;;;;;;;24.98;13.13;;;;;;;;;;5029566;28;20053;-72
2020/12/19 03:29:45;;;;;;;24.48;14.15;;;;;;;;;;5029025;28;20100;-72
2020/12/19 03:32:11;;;;;;;25.17;13.18;;;;;;;;;;5015737;28;20539;-73
2020/12/19 03:34:37;;;;;;;25.80;13.75;;;;;;;;;;5028713;28;20057;-72
2020/12/19 03:37:03;;;;;;;22.00;12.20;;;;;;;;;;5026619;28;20045;-72
2020/12/19 03:39:28;;;;;;;26.27;14.15;;;;;;;;;;5017791;28;20034;-72
2020/12/19 03:41:54;;;;;;;24.73;14.85;;;;;;;;;;5029033;28;20061;-72
2020/12/19 03:44:20;;;;;;;24.73;14.18;;;;;;;;;;5016019;28;20029;-72
2020/12/19 03:46:46;;;;;;;25.40;14.07;;;;;;;;;;5030005;28;20040;-72
2020/12/19 03:49:12;;;;;;;22.02;13.63;;;;;;;;;;5028928;28;20025;-73
2020/12/19 03:51:38;;;;;;;22.20;13.27;;;;;;;;;;5019401;28;20105;-72
2020/12/19 03:54:04;;;;;;;26.83;14.63;;;;;;;;;;5011270;28;20077;-72
2020/12/19 03:56:30;;;;;;;23.17;13.13;;;;;;;;;;5029393;28;20125;-73
2020/12/19 03:58:56;;;;;;;24.15;13.15;;;;;;;;;;5027459;28;20029;-73
2020/12/19 04:01:22;;;;;;;23.88;13.55;;;;;;;;;;5022794;28;20109;-73
2020/12/19 04:03:48;;;;;;;24.65;13.18;;;;;;;;;;5021809;28;20112;-73
2020/12/19 04:06:13;;;;;;;26.20;14.75;;;;;;;;;;5028398;28;20493;-72
2020/12/19 04:08:39;;;;;;;24.25;13.20;;;;;;;;;;5023461;28;20021;-72
2020/12/19 04:11:06;;;;;;;25.95;13.10;;;;;;;;;;5028692;28;20025;-72
2020/12/19 04:13:32;;;;;;;24.70;13.73;;;;;;;;;;5015001;28;20040;-72
2020/12/19 04:15:58;;;;;;;22.95;13.43;;;;;;;;;;5029428;28;20022;-72
2020/12/19 04:18:24;;;;;;;22.15;13.57;;;;;;;;;;5027975;28;20459;-73
2020/12/19 04:20:50;;;;;;;23.60;13.00;;;;;;;;;;5015920;28;20033;-73
2020/12/19 04:23:16;;;;;;;22.75;13.38;;;;;;;;;;5028545;28;20036;-73
2020/12/19 04:25:42;;;;;;;24.38;12.45;;;;;;;;;;5028128;28;20041;-72
2020/12/19 04:28:08;;;;;;;24.48;13.02;;;;;;;;;;5028758;28;20033;-72
2020/12/19 04:30:34;;;;;;;22.27;11.85;;;;;;;;;;5028483;28;20025;-72
2020/12/19 04:33:00;;;;;;;26.05;12.85;;;;;;;;;;5027612;28;20029;-72
2020/12/19 04:35:26;;;;;;;21.92;12.40;;;;;;;;;;5011820;28;20025;-72
2020/12/19 04:37:51;;;;;;;24.73;12.50;;;;;;;;;;5017693;28;20037;-72
2020/12/19 04:40:17;;;;;;;21.85;12.15;;;;;;;;;;5028309;28;20040;-72
2020/12/19 04:42:43;;;;;;;23.90;11.65;;;;;;;;;;5028655;28;20052;-72
2020/12/19 04:45:09;;;;;;;20.15;12.07;;;;;;;;;;5028506;28;20515;-73
2020/12/19 04:47:36;;;;;;;23.13;12.82;;;;;;;;;;5026557;28;20570;-72
2020/12/19 04:50:02;;;;;;;19.45;11.05;;;;;;;;;;5027059;28;20839;-73
2020/12/19 04:52:29;;;;;;;23.25;12.63;;;;;;;;;;5023643;28;20097;-72
2020/12/19 04:54:55;;;;;;;19.08;12.02;;;;;;;;;;5018258;28;20034;-72
2020/12/19 04:57:20;;;;;;;19.27;11.02;;;;;;;;;;5027863;28;20103;-73
2020/12/19 04:59:47;;;;;;;22.17;12.88;;;;;;;;;;5026833;28;20061;-73
2020/12/19 05:02:14;;;;;;;21.90;11.82;;;;;;;;;;5028974;28;20069;-73
2020/12/19 05:04:40;;;;;;;21.25;11.30;;;;;;;;;;5028049;28;20034;-73
2020/12/19 05:07:07;;;;;;;17.77;10.73;;;;;;;;;;5028123;28;20104;-72
2020/12/19 05:09:40;;;;;;;20.15;11.63;;;;;;;;;;5028659;28;20187;-71
2020/12/19 05:12:07;;;;;;;17.92;10.85;;;;;;;;;;5023160;28;20065;-72
2020/12/19 05:14:33;;;;;;;18.40;10.82;;;;;;;;;;5019030;28;20689;-71
2020/12/19 05:17:02;;;;;;;16.63;10.27;;;;;;;;;;5027252;28;20104;-71
2020/12/19 05:19:28;;;;;;;20.95;10.95;;;;;;;;;;5027754;28;20029;-72
2020/12/19 05:21:55;;;;;;;14.95;9.15;;;;;;;;;;5013904;28;20076;-71
2020/12/19 05:24:26;;;;;;;17.10;10.27;;;;;;;;;;5015716;28;20033;-71
2020/12/19 05:26:52;;;;;;;20.20;10.40;;;;;;;;;;5027875;28;20484;-72
2020/12/19 05:29:19;;;;;;;16.33;10.75;;;;;;;;;;5023659;28;20128;-72
2020/12/19 05:31:50;;;;;;;18.30;10.27;;;;;;;;;;5020599;28;20021;-73
2020/12/19 05:34:16;;;;;;;17.58;10.55;;;;;;;;;;5020093;28;20022;-73
2020/12/19 05:36:42;;;;;;;17.77;10.18;;;;;;;;;;5021281;28;20045;-73
2020/12/19 05:39:08;;;;;;;15.57;9.55;;;;;;;;;;5027624;28;20041;-72
2020/12/19 05:41:37;;;;;;;19.35;11.25;;;;;;;;;;5028253;28;20033;-72
2020/12/19 05:44:03;;;;;;;19.27;10.60;;;;;;;;;;5027861;28;20378;-71
2020/12/19 05:46:39;;;;;;;17.13;10.68;;;;;;;;;;5028014;28;20045;-72
2020/12/19 05:49:07;;;;;;;16.05;9.48;;;;;;;;;;5027282;28;20028;-72
2020/12/19 05:51:34;;;;;;;14.27;9.68;;;;;;;;;;5027850;28;20097;-72
2020/12/19 05:54:01;;;;;;;15.43;9.48;;;;;;;;;;5027550;28;20033;-71
2020/12/19 05:56:28;;;;;;;15.85;9.02;;;;;;;;;;5028390;28;20037;-72
2020/12/19 05:58:54;;;;;;;15.57;9.27;;;;;;;;;;5028414;28;20431;-72
2020/12/19 06:01:21;;;;;;;16.15;8.88;;;;;;;;;;5043373;28;20033;-74
2020/12/19 06:03:49;;;;;;;16.33;9.00;;;;;;;;;;5030365;28;20102;-71
2020/12/19 06:06:16;;;;;;;16.40;9.18;;;;;;;;;;5026938;28;20101;-71
2020/12/19 06:08:42;;;;;;;15.02;9.15;;;;;;;;;;5026794;28;20037;-71
2020/12/19 06:11:14;;;;;;;14.57;8.32;;;;;;;;;;5027690;28;20486;-74
2020/12/19 06:13:42;;;;;;;16.77;10.20;;;;;;;;;;5029837;28;20049;-71
2020/12/19 06:16:11;;;;;;;14.65;8.38;;;;;;;;;;5031126;28;20043;-71
2020/12/19 06:18:53;;;;;;;15.65;8.48;;;;;;;;;;5028524;28;20033;-72
2020/12/19 06:21:20;;;;;;;16.27;8.80;;;;;;;;;;5026308;28;20041;-71
2020/12/19 06:23:46;;;;;;;15.82;8.95;;;;;;;;;;5027757;28;20037;-73
2020/12/19 06:26:13;;;;;;;16.42;9.27;;;;;;;;;;5030998;28;20033;-73
2020/12/19 06:28:42;;;;;;;14.07;8.82;;;;;;;;;;5030467;28;20029;-73
2020/12/19 06:31:09;;;;;;;15.60;9.18;;;;;;;;;;5023850;28;20065;-72
2020/12/19 06:33:35;;;;;;;17.15;9.35;;;;;;;;;;5022649;28;20029;-73
2020/12/19 06:36:16;;;;;;;13.30;8.35;;;;;;;;;;5011122;28;20036;-72
2020/12/19 06:38:43;;;;;;;15.77;9.80;;;;;;;;;;5027501;28;20038;-72
2020/12/19 06:41:09;;;;;;;19.92;10.15;;;;;;;;;;5030738;28;20306;-71
2020/12/19 06:43:35;;;;;;;16.90;10.85;;;;;;;;;;5029261;28;20442;-74
2020/12/19 06:46:01;;;;;;;16.75;9.68;;;;;;;;;;5015139;28;20037;-72
2020/12/19 06:48:32;;;;;;;18.25;11.30;;;;;;;;;;5030630;28;20033;-72
2020/12/19 06:50:59;;;;;;;20.50;11.57;;;;;;;;;;5030192;28;20100;-72
2020/12/19 06:53:25;;;;;;;16.80;10.48;;;;;;;;;;5029030;28;20060;-72
2020/12/19 06:55:51;;;;;;;18.60;10.77;;;;;;;;;;5016527;28;20443;-72
2020/12/19 06:58:31;;;;;;;17.88;11.05;;;;;;;;;;5030462;28;20033;-74
2020/12/19 07:00:57;;;;;;;18.02;10.68;;;;;;;;;;5016251;28;20032;-72
2020/12/19 07:03:40;;;;;;;19.60;12.10;;;;;;;;;;5027313;28;20068;-72
2020/12/19 07:06:09;;;;;;;20.35;11.85;;;;;;;;;;5021184;28;20036;-72
2020/12/19 07:08:35;;;;;;;20.90;12.10;;;;;;;;;;5030236;28;20030;-71
2020/12/19 07:11:01;;;;;;;20.23;11.32;;;;;;;;;;5030276;28;20529;-72
2020/12/19 07:13:47;;;;;;;17.98;11.70;;;;;;;;;;5029793;28;20260;-74
2020/12/19 07:16:13;;;;;;;23.88;12.77;;;;;;;;;;5019309;28;20036;-72
2020/12/19 07:18:40;;;;;;;20.90;12.40;;;;;;;;;;5026252;28;20116;-72
2020/12/19 07:21:07;;;;;;;21.58;11.00;;;;;;;;;;5029974;28;20598;-72
2020/12/19 07:23:34;;;;;;;28.77;13.50;;;;;;;;;;5029760;28;20150;-73
2020/12/19 07:26:00;;;;;;;20.75;12.60;;;;;;;;;;5029239;28;20461;-72
2020/12/19 07:28:26;;;;;;;19.73;12.05;;;;;;;;;;5029821;28;20025;-72
2020/12/19 07:30:52;;;;;;;21.88;12.50;;;;;;;;;;5029595;28;20033;-72
2020/12/19 07:33:19;;;;;;;22.05;12.48;;;;;;;;;;5018720;28;20060;-73
2020/12/19 07:35:45;;;;;;;22.15;12.02;;;;;;;;;;5015394;28;20453;-72
2020/12/19 07:38:11;;;;;;;20.90;12.85;;;;;;;;;;5029463;28;20048;-73
2020/12/19 07:40:37;;;;;;;23.33;13.00;;;;;;;;;;5025857;28;20030;-75
2020/12/19 07:43:04;;;;;;;20.85;12.65;;;;;;;;;;5009923;28;20495;-71
2020/12/19 07:45:30;;;;;;;20.20;12.30;;;;;;;;;;5025018;28;20116;-71
2020/12/19 07:47:56;;;;;;;23.80;13.35;;;;;;;;;;5029582;28;20491;-71
2020/12/19 07:50:25;;;;;;;24.02;13.77;;;;;;;;;;5027954;28;20055;-72
2020/12/19 07:53:00;;;;;;;20.60;12.93;;;;;;;;;;5028160;28;20107;-72
2020/12/19 07:55:27;;;;;;;23.27;12.88;;;;;;;;;;5027997;28;20036;-71
2020/12/19 07:57:54;;;;;;;22.83;12.35;;;;;;;;;;5025153;28;20779;-72
2020/12/19 08:00:20;;;;;;;23.02;12.73;;;;;;;;;;5019561;28;20612;-71
2020/12/19 08:02:46;;;;;;;26.13;13.32;;;;;;;;;;5029120;28;20034;-72
2020/12/19 08:05:12;;;;;;;22.95;13.30;;;;;;;;;;5013297;28;20032;-71
2020/12/19 08:07:38;;;;;;;22.85;13.40;;;;;;;;;;5029022;28;20096;-71
2020/12/19 08:10:06;;;;;;;22.13;12.90;;;;;;;;;;5024958;28;20109;-72
2020/12/19 08:12:32;;;;;;;24.85;14.70;;;;;;;;;;5028893;28;20029;-73
2020/12/19 08:14:59;;;;;;;21.00;12.48;;;;;;;;;;5024631;28;20026;-72
2020/12/19 08:17:26;;;;;;;26.25;13.38;;;;;;;;;;5019804;28;20108;-71
2020/12/19 08:19:54;;;;;;;27.30;13.13;;;;;;;;;;5028703;28;20112;-72
2020/12/19 08:22:21;;;;;;;24.13;12.95;;;;;;;;;;5018744;28;20540;-71
2020/12/19 08:24:47;;;;;;;23.58;12.57;;;;;;;;;;5024362;28;20029;-71
2020/12/19 08:27:32;;;;;;;21.75;13.65;;;;;;;;;;5023992;28;20099;-71
2020/12/19 08:30:05;;;;;;;23.27;13.77;;;;;;;;;;5024714;28;20112;-71
2020/12/19 08:32:32;;;;;;;22.40;14.38;;;;;;;;;;5023722;28;20026;-73
2020/12/19 08:34:58;;;;;;;23.17;13.57;;;;;;;;;;5024401;28;20116;-72
2020/12/19 08:37:24;;;;;;;24.30;13.20;;;;;;;;;;5022874;28;20088;-72
2020/12/19 08:40:02;;;;;;;21.42;13.07;;;;;;;;;;5020021;28;20142;-73
2020/12/19 08:42:32;;;;;;;20.73;12.18;;;;;;;;;;5027213;28;20033;-71
2020/12/19 08:45:13;;;;;;;21.02;12.43;;;;;;;;;;5029159;28;20069;-72
2020/12/19 08:47:40;;;;;;;23.55;13.57;;;;;;;;;;5014055;28;20430;-72
2020/12/19 08:50:06;;;;;;;22.73;12.75;;;;;;;;;;5016948;28;20014;-73
2020/12/19 08:52:31;;;;;;;29.52;14.55;;;;;;;;;;5026003;28;20109;-71
2020/12/19 08:55:00;;;;;;;19.88;12.95;;;;;;;;;;5028697;28;20087;-71
2020/12/19 08:57:33;;;;;;;25.30;12.20;;;;;;;;;;5026312;28;20091;-72
2020/12/19 09:00:09;;;;;;;23.58;12.65;;;;;;;;;;5017539;28;20372;-73
2020/12/19 09:02:37;;;;;;;22.88;12.85;;;;;;;;;;5014040;28;20037;-71
2020/12/19 09:05:03;;;;;;;22.80;12.55;;;;;;;;;;5014386;28;20467;-72
2020/12/19 09:07:29;;;;;;;22.17;13.88;;;;;;;;;;5024446;28;20112;-70
2020/12/19 09:09:55;;;;;;;21.77;12.35;;;;;;;;;;5018784;28;20101;-71
2020/12/19 09:12:23;;;;;;;21.00;12.20;;;;;;;;;;5014141;28;20057;-70
2020/12/19 09:14:49;;;;;;;21.27;11.82;;;;;;;;;;5025680;28;20025;-71
2020/12/19 09:17:30;;;;;;;25.20;13.35;;;;;;;;;;5017807;28;20057;-70
2020/12/19 09:20:06;;;;;;;18.95;11.85;;;;;;;;;;5011178;28;20033;-72
2020/12/19 09:22:33;;;;;;;32.72;13.30;;;;;;;;;;5020980;28;20502;-71
2020/12/19 09:24:59;;;;;;;23.80;12.77;;;;;;;;;;5020472;28;20402;-71
2020/12/19 09:27:25;;;;;;;19.05;12.00;;;;;;;;;;5040133;28;20491;-70
2020/12/19 09:29:51;;;;;;;16.10;10.90;;;;;;;;;;5029608;28;20078;-71
2020/12/19 09:32:17;;;;;;;23.65;12.27;;;;;;;;;;5032868;28;20029;-72
2020/12/19 09:34:43;;;;;;;20.23;11.98;;;;;;;;;;5028116;28;20032;-72
2020/12/19 09:37:09;;;;;;;19.45;11.00;;;;;;;;;;5034361;28;20045;-72
2020/12/19 09:39:35;;;;;;;17.80;10.23;;;;;;;;;;5059906;28;20530;-72
2020/12/19 09:42:01;;;;;;;19.50;10.32;;;;;;;;;;5028388;28;20499;-72
2020/12/19 09:44:26;;;;;;;16.23;9.55;;;;;;;;;;5035494;28;20044;-73
2020/12/19 09:46:52;;;;;;;16.35;9.65;;;;;;;;;;5034859;28;20826;-72
2020/12/19 09:49:18;;;;;;;15.48;9.07;;;;;;;;;;5031163;28;20036;-72
2020/12/19 09:51:44;;;;;;;15.73;9.00;;;;;;;;;;5035076;28;20029;-72
2020/12/19 09:54:10;;;;;;;18.15;9.35;;;;;;;;;;5037984;28;20036;-72
2020/12/19 09:56:37;;;;;;;16.58;9.18;;;;;;;;;;5038849;28;20479;-72
2020/12/19 09:59:03;;;;;;;15.07;8.55;;;;;;;;;;5034044;28;20035;-71
2020/12/19 10:01:29;;;;;;;13.15;7.93;;;;;;;;;;5036316;28;20031;-71
2020/12/19 10:03:55;;;;;;;13.70;8.10;;;;;;;;;;5039112;28;20029;-71
2020/12/19 10:06:21;;;;;;;13.63;8.15;;;;;;;;;;5033927;28;20025;-70
2020/12/19 10:08:47;;;;;;;14.00;8.07;;;;;;;;;;5037063;28;20272;-71
2020/12/19 10:11:13;;;;;;;12.50;7.53;;;;;;;;;;5038581;28;20028;-71
2020/12/19 10:13:39;;;;;;;11.40;8.15;;;;;;;;;;5037546;28;20514;-71
2020/12/19 10:16:05;;;;;;;10.43;7.38;;;;;;;;;;5057132;28;20136;-72
2020/12/19 10:18:31;;;;;;;15.68;7.72;;;;;;;;;;5062658;28;20056;-72
2020/12/19 10:20:57;;;;;;;14.18;7.68;;;;;;;;;;5033904;28;20438;-72
2020/12/19 10:23:23;;;;;;;12.13;7.10;;;;;;;;;;5034656;28;20071;-72
2020/12/19 10:25:49;;;;;;;12.15;7.18;;;;;;;;;;5036018;28;20032;-72
2020/12/19 10:28:15;;;;;;;14.57;7.43;;;;;;;;;;5037899;28;20088;-71
2020/12/19 10:30:41;;;;;;;12.48;7.30;;;;;;;;;;5046002;28;20454;-72
2020/12/19 10:33:07;;;;;;;10.68;6.47;;;;;;;;;;5034861;28;20483;-72
2020/12/19 10:35:33;;;;;;;12.32;6.95;;;;;;;;;;5045964;28;20033;-72
2020/12/19 10:37:59;;;;;;;10.80;6.93;;;;;;;;;;5037083;28;20059;-70
2020/12/19 10:40:24;;;;;;;12.30;6.38;;;;;;;;;;5038327;28;20026;-70
2020/12/19 10:42:53;;;;;;;16.70;7.05;;;;;;;;;;5036543;28;20029;-72
2020/12/19 10:45:20;;;;;;;12.75;6.20;;;;;;;;;;5044234;28;20025;-70
2020/12/19 10:47:46;;;;;;;9.70;5.93;;;;;;;;;;5038902;28;20048;-73
2020/12/19 10:50:17;;;;;;;8.48;6.63;;;;;;;;;;5033753;28;20029;-72
2020/12/19 10:52:43;;;;;;;10.63;6.28;;;;;;;;;;5047176;28;20107;-72
2020/12/19 10:55:09;;;;;;;10.43;6.03;;;;;;;;;;5042514;28;20546;-71
2020/12/19 10:57:35;;;;;;;11.02;6.38;;;;;;;;;;5034149;28;20060;-71
2020/12/19 11:00:04;;;;;;;8.98;5.80;;;;;;;;;;5029516;28;20148;-72
2020/12/19 11:02:31;;;;;;;7.85;5.13;;;;;;;;;;5043511;28;20030;-72
2020/12/19 11:04:57;;;;;;;12.38;7.10;;;;;;;;;;5036189;28;20045;-71
2020/12/19 11:07:22;;;;;;;11.02;6.50;;;;;;;;;;5048000;28;20049;-71
2020/12/19 11:09:48;;;;;;;9.40;6.05;;;;;;;;;;5031908;28;20052;-71
2020/12/19 11:12:14;;;;;;;11.40;5.80;;;;;;;;;;5038133;28;20031;-69
2020/12/19 11:14:40;;;;;;;7.28;5.22;;;;;;;;;;5041567;28;20629;-70
2020/12/19 11:17:06;;;;;;;9.43;5.50;;;;;;;;;;5036144;28;20555;-70
2020/12/19 11:19:32;;;;;;;9.60;5.75;;;;;;;;;;5037971;28;20104;-70
2020/12/19 11:21:58;;;;;;;8.48;5.00;;;;;;;;;;5043535;28;20116;-71
2020/12/19 11:24:24;;;;;;;7.97;5.25;;;;;;;;;;5037133;28;20053;-70
2020/12/19 11:26:50;;;;;;;8.13;5.30;;;;;;;;;;5043047;28;20473;-71
2020/12/19 11:29:16;;;;;;;10.05;4.90;;;;;;;;;;5038947;28;20040;-70
2020/12/19 11:31:42;;;;;;;10.10;4.93;;;;;;;;;;5033861;28;20924;-71
2020/12/19 11:34:10;;;;;;;7.82;5.03;;;;;;;;;;5035920;28;20032;-71
2020/12/19 11:36:40;;;;;;;8.95;4.68;;;;;;;;;;5051673;28;20103;-72
2020/12/19 11:39:07;;;;;;;8.35;5.30;;;;;;;;;;5036477;28;20033;-71
2020/12/19 11:41:34;;;;;;;8.98;5.53;;;;;;;;;;5026097;28;20025;-71
2020/12/19 11:44:00;;;;;;;8.85;4.90;;;;;;;;;;5034221;28;20033;-72
2020/12/19 11:46:26;;;;;;;9.20;5.22;;;;;;;;;;5032250;28;20079;-70
2020/12/19 11:48:52;;;;;;;6.43;4.10;;;;;;;;;;5043066;28;20045;-71
2020/12/19 11:51:17;;;;;;;5.15;3.95;;;;;;;;;;5043000;28;20035;-70
2020/12/19 11:53:43;;;;;;;10.20;5.22;;;;;;;;;;5041445;28;20029;-73
2020/12/19 11:56:09;;;;;;;8.32;3.95;;;;;;;;;;5034991;28;20075;-72
2020/12/19 11:58:35;;;;;;;8.50;4.40;;;;;;;;;;5041356;28;20460;-72
2020/12/19 12:01:01;;;;;;;6.68;3.80;;;;;;;;;;5041596;28;20029;-70
2020/12/19 12:03:27;;;;;;;9.52;4.45;;;;;;;;;;5041666;28;20395;-70
2020/12/19 12:05:53;;;;;;;8.20;3.80;;;;;;;;;;5045581;28;20136;-72
2020/12/19 12:08:19;;;;;;;8.68;4.15;;;;;;;;;;5036614;28;20064;-70
2020/12/19 12:10:45;;;;;;;10.00;4.38;;;;;;;;;;5042083;28;20517;-71
2020/12/19 12:13:11;;;;;;;5.97;3.38;;;;;;;;;;5029333;28;20026;-71
2020/12/19 12:15:37;;;;;;;8.23;3.22;;;;;;;;;;5046665;28;20482;-72
2020/12/19 12:18:03;;;;;;;6.10;2.83;;;;;;;;;;5045276;28;20033;-70
2020/12/19 12:20:29;;;;;;;6.05;3.13;;;;;;;;;;5046291;28;20083;-70
2020/12/19 12:22:54;;;;;;;6.50;3.00;;;;;;;;;;5048436;28;20036;-70
2020/12/19 12:25:20;;;;;;;4.15;3.17;;;;;;;;;;5044914;28;20103;-70
2020/12/19 12:27:46;;;;;;;6.28;3.13;;;;;;;;;;5037475;28;20048;-71
2020/12/19 12:30:12;;;;;;;4.78;3.17;;;;;;;;;;5035022;28;20029;-71
2020/12/19 12:32:38;;;;;;;4.50;3.33;;;;;;;;;;5036619;28;20453;-71
2020/12/19 12:35:04;;;;;;;7.45;4.35;;;;;;;;;;5048664;28;20029;-72
2020/12/19 12:37:30;;;;;;;7.47;4.32;;;;;;;;;;5035099;28;20041;-71
2020/12/19 12:39:56;;;;;;;9.63;3.60;;;;;;;;;;5039691;28;20060;-72
2020/12/19 12:42:23;;;;;;;5.70;2.97;;;;;;;;;;5032084;28;20036;-73
2020/12/19 12:44:49;;;;;;;9.88;3.60;;;;;;;;;;5039666;28;20867;-71
2020/12/19 12:47:17;;;;;;;9.00;4.28;;;;;;;;;;5033616;28;20483;-71
2020/12/19 12:49:43;;;;;;;7.82;4.00;;;;;;;;;;5033499;28;20087;-73
2020/12/19 12:52:08;;;;;;;5.15;3.10;;;;;;;;;;5041939;28;20037;-73
2020/12/19 12:54:34;;;;;;;6.30;3.95;;;;;;;;;;5045762;28;20028;-70
2020/12/19 12:57:00;;;;;;;5.55;3.47;;;;;;;;;;5045460;28;20252;-70
2020/12/19 12:59:26;;;;;;;8.65;3.90;;;;;;;;;;5044946;28;20468;-70
2020/12/19 13:01:52;;;;;;;6.28;4.03;;;;;;;;;;5044251;28;20231;-70
2020/12/19 13:04:18;;;;;;;8.25;4.22;;;;;;;;;;5043597;28;20056;-70
2020/12/19 13:06:44;;;;;;;7.70;4.80;;;;;;;;;;5044180;28;20106;-70
2020/12/19 13:09:10;;;;;;;6.55;4.13;;;;;;;;;;5060272;28;20816;-71
2020/12/19 13:11:36;;;;;;;8.07;4.13;;;;;;;;;;5045154;28;20467;-71
2020/12/19 13:14:02;;;;;;;7.30;3.92;;;;;;;;;;5045748;28;20032;-70
2020/12/19 13:16:30;;;;;;;8.82;4.03;;;;;;;;;;5045069;28;20102;-70
2020/12/19 13:18:56;;;;;;;6.32;4.20;;;;;;;;;;5045260;28;20021;-70
2020/12/19 13:21:22;;;;;;;6.70;4.05;;;;;;;;;;5045042;28;20043;-70
2020/12/19 13:23:48;;;;;;;9.18;5.20;;;;;;;;;;5044100;28;20040;-70
2020/12/19 13:26:15;;;;;;;8.52;4.28;;;;;;;;;;5045085;28;20501;-70
2020/12/19 13:28:42;;;;;;;5.78;4.25;;;;;;;;;;5045209;28;20017;-71
2020/12/19 13:31:08;;;;;;;7.50;3.92;;;;;;;;;;5044910;28;20083;-71
2020/12/19 13:33:34;;;;;;;5.80;4.35;;;;;;;;;;5043348;28;20029;-70
2020/12/19 13:36:00;;;;;;;5.72;3.53;;;;;;;;;;5036662;28;20573;-71
2020/12/19 13:38:26;;;;;;;5.82;3.38;;;;;;;;;;5045025;28;20517;-71
2020/12/19 13:40:52;;;;;;;7.00;3.45;;;;;;;;;;5044231;28;20032;-70
2020/12/19 13:43:18;;;;;;;7.10;3.67;;;;;;;;;;5045009;28;20040;-72
2020/12/19 13:45:44;;;;;;;6.72;3.88;;;;;;;;;;5043920;28;20087;-72
2020/12/19 13:48:09;;;;;;;5.78;3.65;;;;;;;;;;5042073;28;20139;-70
2020/12/19 13:50:35;;;;;;;5.38;3.17;;;;;;;;;;5037019;28;20273;-71
2020/12/19 13:53:01;;;;;;;8.45;4.40;;;;;;;;;;5037637;28;20028;-70
2020/12/19 13:55:27;;;;;;;5.53;3.50;;;;;;;;;;5035932;28;20095;-70
2020/12/19 13:57:54;;;;;;;4.82;3.47;;;;;;;;;;5037470;28;20489;-71
2020/12/19 14:00:20;;;;;;;5.00;2.97;;;;;;;;;;5032141;28;20034;-72
2020/12/19 14:02:46;;;;;;;5.63;3.47;;;;;;;;;;5032778;28;20147;-71
2020/12/19 14:05:15;;;;;;;6.88;3.60;;;;;;;;;;5034818;28;20413;-71
2020/12/19 14:07:41;;;;;;;7.20;3.03;;;;;;;;;;5043519;28;20025;-71
2020/12/19 14:10:06;;;;;;;6.25;3.38;;;;;;;;;;5038519;28;20533;-71
2020/12/19 14:12:32;;;;;;;7.45;3.67;;;;;;;;;;5039547;28;20398;-71
2020/12/19 14:14:59;;;;;;;6.63;3.20;;;;;;;;;;5034669;28;20053;-73
2020/12/19 14:17:25;;;;;;;4.70;2.80;;;;;;;;;;5038473;28;20017;-71
2020/12/19 14:19:51;;;;;;;7.05;3.00;;;;;;;;;;5041311;28;20515;-69
2020/12/19 14:22:17;;;;;;;6.65;2.90;;;;;;;;;;5041750;28;20029;-73
2020/12/19 14:24:43;;;;;;;6.32;3.13;;;;;;;;;;5048210;28;20033;-72